Lower Makefield, Pennsylvania
Current Conditions -  °F | °C
As of 3:05 PM on Wednesday 26 Nov 2014 (Local Time) from KTTN Reporting Station
Moderate Rain Moderate Rain  
Wind Chill: 26°   Ceiling: 700
Heat Index: 35°   Visibility: 4mi
Dew Point: 32°   Wind: 13mph
Humidity: 89%   Direction: 20°NNE
Pressure: 29.85"   Gusts: 20mph
Location:  40.1994°N, 74.8145°W
Report Text: KTTN 262005Z 02011G17KT 4SM RA BR BKN007 OVC070 02/00 A2985 RMK AO2 P0002 T00170000
Loading
Personal Weather Stations






























Interactive Weather Map New forecast layout! Learn more

10-Day Weather Forecast

Advertisements
Track Severe Weather on mobile